sensor_id;sensor_type;location;lat;lon;timestamp;P1;durP1;ratioP1;P2;durP2;ratioP2
42682;SDS011;28293;50.930;3.464;2022-12-18T00:00:53;86.35;;;46.65;;
42682;SDS011;28293;50.930;3.464;2022-12-18T00:03:19;88.20;;;46.55;;
42682;SDS011;28293;50.930;3.464;2022-12-18T00:05:48;80.47;;;45.83;;
42682;SDS011;28293;50.930;3.464;2022-12-18T00:08:15;91.93;;;48.70;;
42682;SDS011;28293;50.930;3.464;2022-12-18T00:10:41;89.85;;;47.35;;
42682;SDS011;28293;50.930;3.464;2022-12-18T00:13:07;90.93;;;47.45;;
42682;SDS011;28293;50.930;3.464;2022-12-18T00:15:34;91.80;;;50.90;;
42682;SDS011;28293;50.930;3.464;2022-12-18T00:18:00;88.72;;;48.78;;
42682;SDS011;28293;50.930;3.464;2022-12-18T00:20:26;86.55;;;48.08;;
42682;SDS011;28293;50.930;3.464;2022-12-18T00:22:52;95.88;;;50.15;;
42682;SDS011;28293;50.930;3.464;2022-12-18T00:25:18;88.03;;;50.50;;
42682;SDS011;28293;50.930;3.464;2022-12-18T00:27:44;93.30;;;51.28;;
42682;SDS011;28293;50.930;3.464;2022-12-18T00:30:10;90.15;;;47.80;;
42682;SDS011;28293;50.930;3.464;2022-12-18T00:32:36;90.05;;;48.60;;
42682;SDS011;28293;50.930;3.464;2022-12-18T00:35:02;90.00;;;47.83;;
42682;SDS011;28293;50.930;3.464;2022-12-18T00:37:29;85.72;;;47.08;;
42682;SDS011;28293;50.930;3.464;2022-12-18T00:39:54;89.90;;;48.22;;
42682;SDS011;28293;50.930;3.464;2022-12-18T00:42:20;81.95;;;47.45;;
42682;SDS011;28293;50.930;3.464;2022-12-18T00:45:04;85.60;;;47.42;;
42682;SDS011;28293;50.930;3.464;2022-12-18T00:47:30;86.38;;;48.88;;
42682;SDS011;28293;50.930;3.464;2022-12-18T00:49:56;83.13;;;49.30;;
42682;SDS011;28293;50.930;3.464;2022-12-18T00:52:22;80.85;;;47.67;;
42682;SDS011;28293;50.930;3.464;2022-12-18T00:54:47;81.88;;;45.75;;
42682;SDS011;28293;50.930;3.464;2022-12-18T00:57:13;88.25;;;46.92;;
42682;SDS011;28293;50.930;3.464;2022-12-18T00:59:38;83.22;;;47.50;;
42682;SDS011;28293;50.930;3.464;2022-12-18T01:02:04;88.15;;;49.13;;
42682;SDS011;28293;50.930;3.464;2022-12-18T01:04:32;78.10;;;46.00;;
42682;SDS011;28293;50.930;3.464;2022-12-18T01:06:58;83.70;;;46.22;;
42682;SDS011;28293;50.930;3.464;2022-12-18T01:09:24;87.97;;;46.90;;
42682;SDS011;28293;50.930;3.464;2022-12-18T01:11:49;81.43;;;46.17;;
42682;SDS011;28293;50.930;3.464;2022-12-18T01:14:15;80.88;;;46.65;;
42682;SDS011;28293;50.930;3.464;2022-12-18T01:16:41;77.85;;;43.95;;
42682;SDS011;28293;50.930;3.464;2022-12-18T01:19:06;79.22;;;44.78;;
42682;SDS011;28293;50.930;3.464;2022-12-18T01:21:32;76.60;;;43.67;;
42682;SDS011;28293;50.930;3.464;2022-12-18T01:23:58;77.43;;;44.13;;
42682;SDS011;28293;50.930;3.464;2022-12-18T01:26:24;77.47;;;44.55;;
42682;SDS011;28293;50.930;3.464;2022-12-18T01:28:50;79.10;;;44.22;;
42682;SDS011;28293;50.930;3.464;2022-12-18T01:31:17;79.90;;;44.38;;
42682;SDS011;28293;50.930;3.464;2022-12-18T01:33:48;74.82;;;43.88;;
42682;SDS011;28293;50.930;3.464;2022-12-18T01:36:15;88.05;;;45.53;;
42682;SDS011;28293;50.930;3.464;2022-12-18T01:38:43;72.95;;;43.33;;
42682;SDS011;28293;50.930;3.464;2022-12-18T01:41:09;76.75;;;43.58;;
42682;SDS011;28293;50.930;3.464;2022-12-18T01:43:49;79.60;;;45.45;;
42682;SDS011;28293;50.930;3.464;2022-12-18T01:46:18;75.43;;;42.53;;
42682;SDS011;28293;50.930;3.464;2022-12-18T01:48:46;80.18;;;45.28;;
42682;SDS011;28293;50.930;3.464;2022-12-18T01:51:15;77.43;;;45.38;;
42682;SDS011;28293;50.930;3.464;2022-12-18T01:53:41;74.20;;;42.58;;
42682;SDS011;28293;50.930;3.464;2022-12-18T01:56:08;79.25;;;44.92;;
42682;SDS011;28293;50.930;3.464;2022-12-18T02:01:23;71.30;;;41.47;;
42682;SDS011;28293;50.930;3.464;2022-12-18T02:03:49;73.82;;;42.83;;
42682;SDS011;28293;50.930;3.464;2022-12-18T02:06:29;76.43;;;45.88;;
42682;SDS011;28293;50.930;3.464;2022-12-18T02:12:05;75.03;;;42.45;;
42682;SDS011;28293;50.930;3.464;2022-12-18T02:17:19;71.70;;;40.75;;
42682;SDS011;28293;50.930;3.464;2022-12-18T02:19:57;75.65;;;41.50;;
42682;SDS011;28293;50.930;3.464;2022-12-18T02:28:31;67.30;;;38.85;;
42682;SDS011;28293;50.930;3.464;2022-12-18T02:31:01;65.45;;;39.67;;
42682;SDS011;28293;50.930;3.464;2022-12-18T02:33:29;70.00;;;41.47;;
42682;SDS011;28293;50.930;3.464;2022-12-18T02:35:57;68.60;;;38.90;;
42682;SDS011;28293;50.930;3.464;2022-12-18T02:38:25;71.78;;;38.88;;
42682;SDS011;28293;50.930;3.464;2022-12-18T02:40:51;67.75;;;39.38;;
42682;SDS011;28293;50.930;3.464;2022-12-18T02:43:18;66.68;;;38.47;;
42682;SDS011;28293;50.930;3.464;2022-12-18T02:46:20;67.28;;;38.05;;
42682;SDS011;28293;50.930;3.464;2022-12-18T02:48:51;69.60;;;38.25;;
42682;SDS011;28293;50.930;3.464;2022-12-18T02:51:29;62.45;;;38.67;;
42682;SDS011;28293;50.930;3.464;2022-12-18T02:54:06;65.55;;;38.33;;
42682;SDS011;28293;50.930;3.464;2022-12-18T02:56:43;63.13;;;38.78;;
42682;SDS011;28293;50.930;3.464;2022-12-18T02:59:17;62.90;;;36.47;;
42682;SDS011;28293;50.930;3.464;2022-12-18T03:01:53;69.47;;;39.90;;
42682;SDS011;28293;50.930;3.464;2022-12-18T03:07:27;61.47;;;38.33;;
42682;SDS011;28293;50.930;3.464;2022-12-18T03:10:25;64.63;;;37.65;;
42682;SDS011;28293;50.930;3.464;2022-12-18T03:12:56;67.15;;;37.25;;
42682;SDS011;28293;50.930;3.464;2022-12-18T03:15:38;60.97;;;37.83;;
42682;SDS011;28293;50.930;3.464;2022-12-18T03:18:10;76.65;;;43.08;;
42682;SDS011;28293;50.930;3.464;2022-12-18T03:20:47;77.15;;;43.90;;
42682;SDS011;28293;50.930;3.464;2022-12-18T03:23:17;75.70;;;42.03;;
42682;SDS011;28293;50.930;3.464;2022-12-18T03:25:46;76.57;;;42.70;;
42682;SDS011;28293;50.930;3.464;2022-12-18T03:28:14;61.33;;;37.20;;
42682;SDS011;28293;50.930;3.464;2022-12-18T03:30:43;62.70;;;37.30;;
42682;SDS011;28293;50.930;3.464;2022-12-18T03:33:12;66.28;;;37.08;;
42682;SDS011;28293;50.930;3.464;2022-12-18T03:35:44;59.83;;;36.53;;
42682;SDS011;28293;50.930;3.464;2022-12-18T03:38:11;68.22;;;38.28;;
42682;SDS011;28293;50.930;3.464;2022-12-18T03:40:43;61.55;;;36.55;;
42682;SDS011;28293;50.930;3.464;2022-12-18T03:46:27;56.97;;;35.30;;
42682;SDS011;28293;50.930;3.464;2022-12-18T03:49:28;66.75;;;37.05;;
42682;SDS011;28293;50.930;3.464;2022-12-18T03:52:04;65.53;;;37.72;;
42682;SDS011;28293;50.930;3.464;2022-12-18T03:54:45;60.72;;;34.67;;
42682;SDS011;28293;50.930;3.464;2022-12-18T03:57:16;57.60;;;36.22;;
42682;SDS011;28293;50.930;3.464;2022-12-18T03:59:44;57.53;;;35.65;;
42682;SDS011;28293;50.930;3.464;2022-12-18T04:02:12;63.67;;;38.28;;
42682;SDS011;28293;50.930;3.464;2022-12-18T04:04:40;64.05;;;37.15;;
42682;SDS011;28293;50.930;3.464;2022-12-18T04:07:08;66.90;;;38.40;;
42682;SDS011;28293;50.930;3.464;2022-12-18T04:09:34;66.07;;;36.35;;
42682;SDS011;28293;50.930;3.464;2022-12-18T04:12:01;64.43;;;38.60;;
42682;SDS011;28293;50.930;3.464;2022-12-18T04:14:27;61.38;;;37.13;;
42682;SDS011;28293;50.930;3.464;2022-12-18T04:16:53;59.88;;;35.40;;
42682;SDS011;28293;50.930;3.464;2022-12-18T04:19:18;62.10;;;38.10;;
42682;SDS011;28293;50.930;3.464;2022-12-18T04:21:44;60.90;;;36.70;;
42682;SDS011;28293;50.930;3.464;2022-12-18T04:24:10;62.28;;;35.60;;
42682;SDS011;28293;50.930;3.464;2022-12-18T04:26:35;63.10;;;36.58;;
42682;SDS011;28293;50.930;3.464;2022-12-18T04:29:01;64.03;;;37.42;;
42682;SDS011;28293;50.930;3.464;2022-12-18T04:31:27;66.70;;;37.45;;
42682;SDS011;28293;50.930;3.464;2022-12-18T04:33:53;61.78;;;36.15;;
42682;SDS011;28293;50.930;3.464;2022-12-18T04:36:18;64.53;;;36.65;;
42682;SDS011;28293;50.930;3.464;2022-12-18T04:38:44;56.95;;;34.90;;
42682;SDS011;28293;50.930;3.464;2022-12-18T04:41:09;60.17;;;37.00;;
42682;SDS011;28293;50.930;3.464;2022-12-18T04:43:35;63.72;;;38.40;;
42682;SDS011;28293;50.930;3.464;2022-12-18T04:46:04;63.03;;;37.08;;
42682;SDS011;28293;50.930;3.464;2022-12-18T04:48:31;64.57;;;37.50;;
42682;SDS011;28293;50.930;3.464;2022-12-18T04:50:57;58.83;;;37.70;;
42682;SDS011;28293;50.930;3.464;2022-12-18T04:53:23;59.70;;;36.33;;
42682;SDS011;28293;50.930;3.464;2022-12-18T04:55:49;62.20;;;36.25;;
42682;SDS011;28293;50.930;3.464;2022-12-18T04:58:15;64.45;;;36.92;;
42682;SDS011;28293;50.930;3.464;2022-12-18T05:00:41;62.17;;;35.95;;
42682;SDS011;28293;50.930;3.464;2022-12-18T05:03:06;59.22;;;35.95;;
42682;SDS011;28293;50.930;3.464;2022-12-18T05:05:34;62.35;;;36.28;;
42682;SDS011;28293;50.930;3.464;2022-12-18T05:08:00;60.78;;;34.08;;
42682;SDS011;28293;50.930;3.464;2022-12-18T05:10:25;62.63;;;34.80;;
42682;SDS011;28293;50.930;3.464;2022-12-18T05:12:51;58.70;;;35.65;;
42682;SDS011;28293;50.930;3.464;2022-12-18T05:15:23;55.90;;;34.63;;
42682;SDS011;28293;50.930;3.464;2022-12-18T05:17:51;61.22;;;36.35;;
42682;SDS011;28293;50.930;3.464;2022-12-18T05:20:16;60.58;;;34.50;;
42682;SDS011;28293;50.930;3.464;2022-12-18T05:22:43;63.72;;;36.85;;
42682;SDS011;28293;50.930;3.464;2022-12-18T05:25:09;59.17;;;35.78;;
42682;SDS011;28293;50.930;3.464;2022-12-18T05:27:34;53.90;;;33.97;;
42682;SDS011;28293;50.930;3.464;2022-12-18T05:30:00;57.55;;;32.88;;
42682;SDS011;28293;50.930;3.464;2022-12-18T05:32:26;61.47;;;34.88;;
42682;SDS011;28293;50.930;3.464;2022-12-18T05:34:51;62.40;;;37.28;;
42682;SDS011;28293;50.930;3.464;2022-12-18T05:37:17;55.05;;;34.75;;
42682;SDS011;28293;50.930;3.464;2022-12-18T05:39:43;61.35;;;36.05;;
42682;SDS011;28293;50.930;3.464;2022-12-18T05:42:09;57.08;;;35.30;;
42682;SDS011;28293;50.930;3.464;2022-12-18T05:44:34;58.58;;;35.42;;
42682;SDS011;28293;50.930;3.464;2022-12-18T05:47:00;54.08;;;34.60;;
42682;SDS011;28293;50.930;3.464;2022-12-18T05:49:26;54.10;;;34.58;;
42682;SDS011;28293;50.930;3.464;2022-12-18T05:51:51;64.95;;;37.00;;
42682;SDS011;28293;50.930;3.464;2022-12-18T05:54:17;61.67;;;37.42;;
42682;SDS011;28293;50.930;3.464;2022-12-18T05:56:43;62.47;;;37.90;;
42682;SDS011;28293;50.930;3.464;2022-12-18T05:59:08;66.93;;;42.92;;
42682;SDS011;28293;50.930;3.464;2022-12-18T06:01:34;67.97;;;39.90;;
42682;SDS011;28293;50.930;3.464;2022-12-18T06:04:00;64.60;;;39.65;;
42682;SDS011;28293;50.930;3.464;2022-12-18T06:06:26;58.08;;;35.25;;
42682;SDS011;28293;50.930;3.464;2022-12-18T06:08:53;54.78;;;33.72;;
42682;SDS011;28293;50.930;3.464;2022-12-18T06:11:21;56.15;;;33.20;;
42682;SDS011;28293;50.930;3.464;2022-12-18T06:13:51;60.08;;;34.13;;
42682;SDS011;28293;50.930;3.464;2022-12-18T06:16:21;58.60;;;33.55;;
42682;SDS011;28293;50.930;3.464;2022-12-18T06:18:46;52.97;;;32.17;;
42682;SDS011;28293;50.930;3.464;2022-12-18T06:21:12;54.60;;;34.25;;
42682;SDS011;28293;50.930;3.464;2022-12-18T06:23:38;59.67;;;35.08;;
42682;SDS011;28293;50.930;3.464;2022-12-18T06:26:07;64.25;;;36.70;;
42682;SDS011;28293;50.930;3.464;2022-12-18T06:28:34;67.25;;;37.20;;
42682;SDS011;28293;50.930;3.464;2022-12-18T06:31:00;55.00;;;34.97;;
42682;SDS011;28293;50.930;3.464;2022-12-18T06:33:28;54.25;;;32.40;;
42682;SDS011;28293;50.930;3.464;2022-12-18T06:35:54;50.10;;;32.80;;
42682;SDS011;28293;50.930;3.464;2022-12-18T06:38:25;56.70;;;34.70;;
42682;SDS011;28293;50.930;3.464;2022-12-18T06:40:50;55.60;;;34.88;;
42682;SDS011;28293;50.930;3.464;2022-12-18T06:43:16;59.25;;;34.63;;
42682;SDS011;28293;50.930;3.464;2022-12-18T06:45:41;55.80;;;33.47;;
42682;SDS011;28293;50.930;3.464;2022-12-18T06:48:07;56.40;;;33.05;;
42682;SDS011;28293;50.930;3.464;2022-12-18T06:50:33;57.90;;;35.25;;
42682;SDS011;28293;50.930;3.464;2022-12-18T06:52:59;58.10;;;34.90;;
42682;SDS011;28293;50.930;3.464;2022-12-18T06:55:24;55.33;;;34.35;;
42682;SDS011;28293;50.930;3.464;2022-12-18T06:57:50;53.92;;;35.13;;
42682;SDS011;28293;50.930;3.464;2022-12-18T07:00:16;58.50;;;36.60;;
42682;SDS011;28293;50.930;3.464;2022-12-18T07:02:42;57.40;;;36.75;;
42682;SDS011;28293;50.930;3.464;2022-12-18T07:05:08;59.83;;;39.65;;
42682;SDS011;28293;50.930;3.464;2022-12-18T07:07:34;69.03;;;46.13;;
42682;SDS011;28293;50.930;3.464;2022-12-18T07:10:00;65.93;;;42.58;;
42682;SDS011;28293;50.930;3.464;2022-12-18T07:12:28;64.72;;;40.47;;
42682;SDS011;28293;50.930;3.464;2022-12-18T07:14:54;63.53;;;37.55;;
42682;SDS011;28293;50.930;3.464;2022-12-18T07:17:20;59.35;;;37.72;;
42682;SDS011;28293;50.930;3.464;2022-12-18T07:19:46;65.65;;;39.25;;
42682;SDS011;28293;50.930;3.464;2022-12-18T07:22:11;80.40;;;46.25;;
42682;SDS011;28293;50.930;3.464;2022-12-18T07:24:37;64.65;;;36.50;;
42682;SDS011;28293;50.930;3.464;2022-12-18T07:27:03;51.10;;;33.25;;
42682;SDS011;28293;50.930;3.464;2022-12-18T07:29:28;57.13;;;33.85;;
42682;SDS011;28293;50.930;3.464;2022-12-18T07:31:54;68.57;;;36.95;;
42682;SDS011;28293;50.930;3.464;2022-12-18T07:34:20;70.25;;;39.33;;
42682;SDS011;28293;50.930;3.464;2022-12-18T07:36:45;96.97;;;49.92;;
42682;SDS011;28293;50.930;3.464;2022-12-18T07:39:11;96.25;;;49.90;;
42682;SDS011;28293;50.930;3.464;2022-12-18T07:41:37;91.10;;;48.60;;
42682;SDS011;28293;50.930;3.464;2022-12-18T07:44:02;87.97;;;45.38;;
42682;SDS011;28293;50.930;3.464;2022-12-18T07:46:28;66.88;;;39.65;;
42682;SDS011;28293;50.930;3.464;2022-12-18T07:48:54;51.15;;;32.72;;
42682;SDS011;28293;50.930;3.464;2022-12-18T07:51:20;51.67;;;34.45;;
42682;SDS011;28293;50.930;3.464;2022-12-18T07:53:45;49.80;;;33.92;;
42682;SDS011;28293;50.930;3.464;2022-12-18T07:56:11;51.58;;;32.70;;
42682;SDS011;28293;50.930;3.464;2022-12-18T07:58:38;51.47;;;32.78;;
42682;SDS011;28293;50.930;3.464;2022-12-18T08:01:04;57.65;;;33.85;;
42682;SDS011;28293;50.930;3.464;2022-12-18T08:03:31;62.50;;;36.42;;
42682;SDS011;28293;50.930;3.464;2022-12-18T08:06:00;59.42;;;36.13;;
42682;SDS011;28293;50.930;3.464;2022-12-18T08:08:31;93.95;;;49.72;;
42682;SDS011;28293;50.930;3.464;2022-12-18T08:10:58;91.25;;;48.50;;
42682;SDS011;28293;50.930;3.464;2022-12-18T08:13:24;91.03;;;45.97;;
42682;SDS011;28293;50.930;3.464;2022-12-18T08:16:00;134.95;;;57.10;;
42682;SDS011;28293;50.930;3.464;2022-12-18T08:18:28;115.18;;;50.33;;
42682;SDS011;28293;50.930;3.464;2022-12-18T08:20:54;74.35;;;40.55;;
42682;SDS011;28293;50.930;3.464;2022-12-18T08:23:20;58.80;;;34.20;;
42682;SDS011;28293;50.930;3.464;2022-12-18T08:25:46;56.75;;;32.72;;
42682;SDS011;28293;50.930;3.464;2022-12-18T08:28:12;71.22;;;35.03;;
42682;SDS011;28293;50.930;3.464;2022-12-18T08:30:38;79.47;;;42.38;;
42682;SDS011;28293;50.930;3.464;2022-12-18T08:33:04;64.50;;;38.70;;
42682;SDS011;28293;50.930;3.464;2022-12-18T08:35:30;63.95;;;39.80;;
42682;SDS011;28293;50.930;3.464;2022-12-18T08:37:59;55.33;;;34.10;;
42682;SDS011;28293;50.930;3.464;2022-12-18T08:40:24;47.42;;;30.08;;
42682;SDS011;28293;50.930;3.464;2022-12-18T08:42:50;52.42;;;30.15;;
42682;SDS011;28293;50.930;3.464;2022-12-18T08:45:35;44.55;;;27.83;;
42682;SDS011;28293;50.930;3.464;2022-12-18T08:48:00;42.75;;;24.98;;
42682;SDS011;28293;50.930;3.464;2022-12-18T08:50:26;40.95;;;24.20;;
42682;SDS011;28293;50.930;3.464;2022-12-18T08:52:51;38.75;;;23.95;;
42682;SDS011;28293;50.930;3.464;2022-12-18T08:55:17;34.50;;;22.88;;
42682;SDS011;28293;50.930;3.464;2022-12-18T08:57:43;35.50;;;21.13;;
42682;SDS011;28293;50.930;3.464;2022-12-18T09:00:12;33.08;;;20.90;;
42682;SDS011;28293;50.930;3.464;2022-12-18T09:02:38;32.78;;;21.20;;
42682;SDS011;28293;50.930;3.464;2022-12-18T09:05:04;28.17;;;19.73;;
42682;SDS011;28293;50.930;3.464;2022-12-18T09:07:30;31.25;;;20.05;;
42682;SDS011;28293;50.930;3.464;2022-12-18T09:09:55;30.48;;;18.45;;
42682;SDS011;28293;50.930;3.464;2022-12-18T09:12:21;37.53;;;22.17;;
42682;SDS011;28293;50.930;3.464;2022-12-18T09:14:47;28.30;;;19.63;;
42682;SDS011;28293;50.930;3.464;2022-12-18T09:17:12;33.22;;;18.35;;
42682;SDS011;28293;50.930;3.464;2022-12-18T09:19:38;31.00;;;18.40;;
42682;SDS011;28293;50.930;3.464;2022-12-18T09:22:04;31.90;;;20.13;;
42682;SDS011;28293;50.930;3.464;2022-12-18T09:24:30;28.13;;;18.05;;
42682;SDS011;28293;50.930;3.464;2022-12-18T09:26:55;28.80;;;18.55;;
42682;SDS011;28293;50.930;3.464;2022-12-18T09:29:21;30.65;;;18.02;;
42682;SDS011;28293;50.930;3.464;2022-12-18T09:31:47;29.92;;;18.98;;
42682;SDS011;28293;50.930;3.464;2022-12-18T09:34:14;29.65;;;18.17;;
42682;SDS011;28293;50.930;3.464;2022-12-18T09:36:40;30.33;;;18.17;;
42682;SDS011;28293;50.930;3.464;2022-12-18T09:39:05;29.10;;;18.60;;
42682;SDS011;28293;50.930;3.464;2022-12-18T09:44:22;35.67;;;22.00;;
42682;SDS011;28293;50.930;3.464;2022-12-18T09:49:29;30.38;;;18.77;;
42682;SDS011;28293;50.930;3.464;2022-12-18T09:52:02;28.02;;;17.88;;
42682;SDS011;28293;50.930;3.464;2022-12-18T09:54:44;29.42;;;17.75;;
42682;SDS011;28293;50.930;3.464;2022-12-18T09:57:35;29.38;;;18.35;;
42682;SDS011;28293;50.930;3.464;2022-12-18T10:00:09;30.63;;;19.83;;
42682;SDS011;28293;50.930;3.464;2022-12-18T10:02:42;31.33;;;19.85;;
42682;SDS011;28293;50.930;3.464;2022-12-18T10:05:12;31.17;;;18.98;;
42682;SDS011;28293;50.930;3.464;2022-12-18T10:21:15;27.60;;;18.00;;
42682;SDS011;28293;50.930;3.464;2022-12-18T10:26:25;35.50;;;22.75;;
42682;SDS011;28293;50.930;3.464;2022-12-18T10:28:51;42.42;;;27.25;;
42682;SDS011;28293;50.930;3.464;2022-12-18T10:31:20;30.58;;;21.48;;
42682;SDS011;28293;50.930;3.464;2022-12-18T10:33:47;33.00;;;22.63;;
42682;SDS011;28293;50.930;3.464;2022-12-18T10:36:14;32.05;;;20.85;;
42682;SDS011;28293;50.930;3.464;2022-12-18T10:38:43;30.52;;;18.92;;
42682;SDS011;28293;50.930;3.464;2022-12-18T10:43:48;30.63;;;20.77;;
42682;SDS011;28293;50.930;3.464;2022-12-18T10:46:33;29.40;;;18.50;;
42682;SDS011;28293;50.930;3.464;2022-12-18T10:48:59;28.42;;;20.02;;
42682;SDS011;28293;50.930;3.464;2022-12-18T10:51:34;33.33;;;20.42;;
42682;SDS011;28293;50.930;3.464;2022-12-18T10:54:07;31.73;;;20.95;;
42682;SDS011;28293;50.930;3.464;2022-12-18T10:56:48;29.88;;;19.67;;
42682;SDS011;28293;50.930;3.464;2022-12-18T10:59:15;33.60;;;20.80;;
42682;SDS011;28293;50.930;3.464;2022-12-18T11:04:29;32.58;;;20.75;;
42682;SDS011;28293;50.930;3.464;2022-12-18T11:07:03;34.33;;;21.77;;
42682;SDS011;28293;50.930;3.464;2022-12-18T11:09:34;32.05;;;21.08;;
42682;SDS011;28293;50.930;3.464;2022-12-18T11:12:05;31.83;;;20.52;;
42682;SDS011;28293;50.930;3.464;2022-12-18T11:14:42;32.00;;;21.25;;
42682;SDS011;28293;50.930;3.464;2022-12-18T11:17:21;35.20;;;21.85;;
42682;SDS011;28293;50.930;3.464;2022-12-18T11:19:55;36.00;;;22.73;;
42682;SDS011;28293;50.930;3.464;2022-12-18T11:24:59;33.83;;;22.08;;
42682;SDS011;28293;50.930;3.464;2022-12-18T11:27:47;33.58;;;21.60;;
42682;SDS011;28293;50.930;3.464;2022-12-18T11:32:59;31.42;;;21.27;;
42682;SDS011;28293;50.930;3.464;2022-12-18T11:40:58;36.45;;;22.95;;
42682;SDS011;28293;50.930;3.464;2022-12-18T11:43:39;33.13;;;22.65;;
42682;SDS011;28293;50.930;3.464;2022-12-18T11:46:32;37.47;;;23.65;;
42682;SDS011;28293;50.930;3.464;2022-12-18T11:49:01;36.20;;;24.00;;
42682;SDS011;28293;50.930;3.464;2022-12-18T11:51:38;35.10;;;23.17;;
42682;SDS011;28293;50.930;3.464;2022-12-18T11:54:12;38.65;;;24.77;;
42682;SDS011;28293;50.930;3.464;2022-12-18T11:56:42;39.83;;;22.85;;
42682;SDS011;28293;50.930;3.464;2022-12-18T11:59:36;39.70;;;23.95;;
42682;SDS011;28293;50.930;3.464;2022-12-18T12:07:50;37.22;;;24.98;;
42682;SDS011;28293;50.930;3.464;2022-12-18T12:18:25;35.92;;;23.83;;
42682;SDS011;28293;50.930;3.464;2022-12-18T12:21:07;37.47;;;25.13;;
42682;SDS011;28293;50.930;3.464;2022-12-18T12:23:58;39.33;;;24.13;;
42682;SDS011;28293;50.930;3.464;2022-12-18T12:32:16;40.42;;;26.92;;
42682;SDS011;28293;50.930;3.464;2022-12-18T12:38:06;40.17;;;25.27;;
42682;SDS011;28293;50.930;3.464;2022-12-18T12:40:41;42.45;;;26.10;;
42682;SDS011;28293;50.930;3.464;2022-12-18T12:43:35;40.20;;;25.92;;
42682;SDS011;28293;50.930;3.464;2022-12-18T12:46:11;45.28;;;27.45;;
42682;SDS011;28293;50.930;3.464;2022-12-18T12:48:46;44.38;;;28.20;;
42682;SDS011;28293;50.930;3.464;2022-12-18T12:53:49;46.25;;;27.73;;
42682;SDS011;28293;50.930;3.464;2022-12-18T12:56:15;44.78;;;29.08;;
42682;SDS011;28293;50.930;3.464;2022-12-18T13:01:34;50.13;;;29.70;;
42682;SDS011;28293;50.930;3.464;2022-12-18T13:07:01;47.03;;;28.60;;
42682;SDS011;28293;50.930;3.464;2022-12-18T13:09:35;47.58;;;29.30;;
42682;SDS011;28293;50.930;3.464;2022-12-18T13:15:32;50.08;;;28.33;;
42682;SDS011;28293;50.930;3.464;2022-12-18T13:30:59;46.72;;;29.60;;
42682;SDS011;28293;50.930;3.464;2022-12-18T13:38:35;46.63;;;26.75;;
42682;SDS011;28293;50.930;3.464;2022-12-18T13:43:49;49.63;;;28.05;;
42682;SDS011;28293;50.930;3.464;2022-12-18T13:46:27;49.65;;;27.75;;
42682;SDS011;28293;50.930;3.464;2022-12-18T13:49:03;48.33;;;29.30;;
42682;SDS011;28293;50.930;3.464;2022-12-18T13:51:44;48.40;;;27.25;;
42682;SDS011;28293;50.930;3.464;2022-12-18T13:57:05;50.88;;;28.10;;
42682;SDS011;28293;50.930;3.464;2022-12-18T13:59:50;48.55;;;27.83;;
42682;SDS011;28293;50.930;3.464;2022-12-18T14:02:16;52.15;;;30.13;;
42682;SDS011;28293;50.930;3.464;2022-12-18T14:04:49;56.60;;;30.40;;
42682;SDS011;28293;50.930;3.464;2022-12-18T14:07:18;56.20;;;30.13;;
42682;SDS011;28293;50.930;3.464;2022-12-18T14:09:49;56.53;;;31.65;;
42682;SDS011;28293;50.930;3.464;2022-12-18T14:12:22;58.03;;;31.55;;
42682;SDS011;28293;50.930;3.464;2022-12-18T14:15:21;56.50;;;30.90;;
42682;SDS011;28293;50.930;3.464;2022-12-18T14:17:59;48.78;;;28.50;;
42682;SDS011;28293;50.930;3.464;2022-12-18T14:20:44;48.03;;;27.95;;
42682;SDS011;28293;50.930;3.464;2022-12-18T14:26:49;48.70;;;26.35;;
42682;SDS011;28293;50.930;3.464;2022-12-18T14:28:52;45.70;;;26.38;;
42682;SDS011;28293;50.930;3.464;2022-12-18T14:31:19;45.38;;;26.88;;
42682;SDS011;28293;50.930;3.464;2022-12-18T14:33:46;45.97;;;27.08;;
42682;SDS011;28293;50.930;3.464;2022-12-18T14:36:16;41.80;;;25.45;;
42682;SDS011;28293;50.930;3.464;2022-12-18T14:38:43;43.65;;;24.98;;
42682;SDS011;28293;50.930;3.464;2022-12-18T14:41:15;45.92;;;25.95;;
42682;SDS011;28293;50.930;3.464;2022-12-18T14:43:43;45.40;;;26.98;;
42682;SDS011;28293;50.930;3.464;2022-12-18T14:48:58;45.67;;;26.17;;
42682;SDS011;28293;50.930;3.464;2022-12-18T14:51:28;44.90;;;26.50;;
42682;SDS011;28293;50.930;3.464;2022-12-18T14:56:33;46.17;;;27.42;;
42682;SDS011;28293;50.930;3.464;2022-12-18T15:01:49;48.65;;;27.88;;
42682;SDS011;28293;50.930;3.464;2022-12-18T15:04:33;47.17;;;26.88;;
42682;SDS011;28293;50.930;3.464;2022-12-18T15:07:09;48.75;;;26.48;;
42682;SDS011;28293;50.930;3.464;2022-12-18T15:09:42;40.67;;;24.90;;
42682;SDS011;28293;50.930;3.464;2022-12-18T15:15:43;46.33;;;26.10;;
42682;SDS011;28293;50.930;3.464;2022-12-18T15:20:31;44.85;;;26.88;;
42682;SDS011;28293;50.930;3.464;2022-12-18T15:23:04;46.03;;;25.88;;
42682;SDS011;28293;50.930;3.464;2022-12-18T15:25:39;43.53;;;25.83;;
42682;SDS011;28293;50.930;3.464;2022-12-18T15:30:57;46.33;;;27.33;;
42682;SDS011;28293;50.930;3.464;2022-12-18T15:33:32;41.35;;;25.17;;
42682;SDS011;28293;50.930;3.464;2022-12-18T15:36:01;42.35;;;25.55;;
42682;SDS011;28293;50.930;3.464;2022-12-18T15:38:29;42.75;;;24.65;;
42682;SDS011;28293;50.930;3.464;2022-12-18T15:40:55;41.38;;;25.13;;
42682;SDS011;28293;50.930;3.464;2022-12-18T15:43:22;45.25;;;27.50;;
42682;SDS011;28293;50.930;3.464;2022-12-18T15:48:28;47.88;;;27.10;;
42682;SDS011;28293;50.930;3.464;2022-12-18T15:50:55;44.45;;;26.55;;
42682;SDS011;28293;50.930;3.464;2022-12-18T15:53:23;45.80;;;27.73;;
42682;SDS011;28293;50.930;3.464;2022-12-18T15:55:52;44.83;;;25.27;;
42682;SDS011;28293;50.930;3.464;2022-12-18T15:58:36;45.95;;;25.60;;
42682;SDS011;28293;50.930;3.464;2022-12-18T16:01:02;41.42;;;25.52;;
42682;SDS011;28293;50.930;3.464;2022-12-18T16:03:28;47.53;;;26.48;;
42682;SDS011;28293;50.930;3.464;2022-12-18T16:05:53;47.90;;;26.00;;
42682;SDS011;28293;50.930;3.464;2022-12-18T16:08:19;47.15;;;26.67;;
42682;SDS011;28293;50.930;3.464;2022-12-18T16:10:45;49.35;;;27.55;;
42682;SDS011;28293;50.930;3.464;2022-12-18T16:13:11;45.47;;;25.83;;
42682;SDS011;28293;50.930;3.464;2022-12-18T16:15:40;47.28;;;27.40;;
42682;SDS011;28293;50.930;3.464;2022-12-18T16:18:06;45.20;;;26.95;;
42682;SDS011;28293;50.930;3.464;2022-12-18T16:20:32;46.08;;;25.63;;
42682;SDS011;28293;50.930;3.464;2022-12-18T16:22:58;50.00;;;27.88;;
42682;SDS011;28293;50.930;3.464;2022-12-18T16:25:25;46.92;;;29.13;;
42682;SDS011;28293;50.930;3.464;2022-12-18T16:27:52;50.75;;;27.80;;
42682;SDS011;28293;50.930;3.464;2022-12-18T16:30:24;48.25;;;27.10;;
42682;SDS011;28293;50.930;3.464;2022-12-18T16:32:53;47.20;;;27.80;;
42682;SDS011;28293;50.930;3.464;2022-12-18T16:35:19;52.08;;;30.02;;
42682;SDS011;28293;50.930;3.464;2022-12-18T16:37:45;48.90;;;27.45;;
42682;SDS011;28293;50.930;3.464;2022-12-18T16:40:11;49.05;;;29.17;;
42682;SDS011;28293;50.930;3.464;2022-12-18T16:42:40;42.63;;;25.63;;
42682;SDS011;28293;50.930;3.464;2022-12-18T16:45:08;45.20;;;27.00;;
42682;SDS011;28293;50.930;3.464;2022-12-18T16:47:35;47.75;;;26.25;;
42682;SDS011;28293;50.930;3.464;2022-12-18T16:50:01;47.60;;;28.40;;
42682;SDS011;28293;50.930;3.464;2022-12-18T16:52:28;49.90;;;28.27;;